MDSTMDSD

Guest
Details From MDST - Santiago Cibao Intl
To MDSD - Las Americas Intl
Flight Number -
Tags generated
Created
Modified
Stats Distance 79 nm / 147 km
Max Altitude 5,000 ft / 1,524 m
Waypoints 3
Social Downloads 24
Likes 0
Share

Download

Looking for another format? Having issues loading an existing format? Contact us
Advertisement - Login to hide

Notes

Basic altitude profile: - Ascent Rate: 10ft/min - Ascent Speed: 156kts - Cruise Altitude: 500ft - Cruise Speed: 280kts - Descent Rate: 50ft/min - Descent Speed: 100kts Options: - Use NATs: yes - Use PACOTS: yes - Use low airways: yes - Use high airways: yes

Route

MDST BIBAS MDSD

ID Type Via Altitude (ft/m) Position (lat/lon) Dist (leg/tot) Name
O MDST APT - 0 / 0 19.40609 / -70.60469 - / 0 nm Santiago Cibao Intl
BIBAS FIX - 5,000 / 1,524 19.23028 / -70.43611 14 / 14 nm
O MDSD APT - 0 / 0 18.42966 / -69.66893 64 / 79 nm Las Americas Intl

Altitude Profile

Advertisement - Login to hide

MDST

Details ICAO MDST (STI)
Name Cibao Intl
Region Dominican Republic
Timezone America/Santo_Domingo (UTC-4.0)
Stats Elevation 567 ft / 173 m (AMSL)
Location 19.406100° -70.604700°
Runways 1
Magnetic Variation 11.417° W

METAR

MDST 102200Z 10009KT 060V130 9999 FEW018CB SCT020 BKN300 25/18 Q1017 CB/E/SE/S/W

Decode

TAF

TAF MDST 101600Z 1018/1118 12010KT 9999 SCT022 BKN300 PROB30 1018/1100 7000 SHRA SCT016 BKN070

Decode

Departure Runways

ID Width Length Bearing (true/mag) Surface Threshold Overrun Markings Lighting
11 148 ft / 45 m 8,610 ft / 2,625 m 103.16° / 114.57° ASPHALT 0 ft / 0 m 184 ft / 56 m PREC-APP CENTERLINE EDGE THRESHOLD MALSR REIL-OMNI
29 148 ft / 45 m 8,610 ft / 2,625 m 283.16° / 294.58° ASPHALT 108 ft / 33 m 194 ft / 59 m PREC-APP CENTERLINE EDGE THRESHOLD REIL-OMNI

MDSD

Details ICAO MDSD (SDQ)
Name Las Americas Intl
Region Dominican Republic
Timezone America/Santo_Domingo (UTC-4.0)
Stats Elevation 59 ft / 18 m (AMSL)
Location 18.429600° -69.668900°
Runways 1
Magnetic Variation 11.777° W

METAR

MDSD 102200Z 02005KT 9999 FEW016CB BKN016 BKN070 26/23 Q1016 CB/NE/NW/N

Decode

TAF

TAF TAF MDSD 101600Z 1018/1118 15008KT 9999 SCT018 BKN070 FM101800 8000 -RA SCT016 BKN070 PROB40 1100/1106 TSRA FEW014CB BKN014 BKN070 BECMG 1101/1103 06004KT

Decode

Destination Runways

ID Width Length Bearing (true/mag) Surface Threshold Overrun Markings Lighting
17 197 ft / 60 m 11,014 ft / 3,357 m 160.76° / 172.54° ASPHALT 0 ft / 0 m 43 ft / 13 m PREC-APP CENTERLINE EDGE THRESHOLD SSALR REIL-OMNI
35 197 ft / 60 m 11,014 ft / 3,357 m 340.76° / 352.54° ASPHALT 0 ft / 0 m 43 ft / 13 m PREC-APP CENTERLINE EDGE THRESHOLD SSALR REIL-OMNI

Approach Navaids

Runway Type Ident Frequency Range Bearing (true/mag) Slope Elevation
17 LOC-ILS ICDO 108.90 MHz 18 nm / 33 km 160.59° / 172.36 ° - 58 ft / 18 m (AMSL)
17 GS ICDO 108.90 MHz 10 nm / 19 km 161.57° / 173.35 ° 3.00° 35 ft / 11 m (AMSL)
17 DME ICDO 108.90 MHz 18 nm / 33 km - - 35 ft / 11 m (AMSL)

Popular Alternatives